sensor_id;sensor_type;location;lat;lon;timestamp;pressure;altitude;pressure_sealevel;temperature;humidity
46007;BME280;31738;50.188;8.524;2023-01-26T00:00:33;99502.47;;;1.76;91.86
46007;BME280;31738;50.188;8.524;2023-01-26T00:03:02;99495.19;;;1.78;91.75
46007;BME280;31738;50.188;8.524;2023-01-26T00:05:39;99489.88;;;1.78;91.98
46007;BME280;31738;50.188;8.524;2023-01-26T00:08:11;99485.81;;;1.83;91.97
46007;BME280;31738;50.188;8.524;2023-01-26T00:10:57;99481.94;;;1.78;91.65
46007;BME280;31738;50.188;8.524;2023-01-26T00:14:10;99487.66;;;1.75;91.62
46007;BME280;31738;50.188;8.524;2023-01-26T00:16:47;99478.28;;;1.73;92.03
46007;BME280;31738;50.188;8.524;2023-01-26T00:19:21;99477.47;;;1.72;91.99
46007;BME280;31738;50.188;8.524;2023-01-26T00:21:58;99483.38;;;1.74;91.88
46007;BME280;31738;50.188;8.524;2023-01-26T00:24:40;99472.56;;;1.69;91.70
46007;BME280;31738;50.188;8.524;2023-01-26T00:27:20;99475.22;;;1.69;91.99
46007;BME280;31738;50.188;8.524;2023-01-26T00:30:05;99468.72;;;1.72;91.90
46007;BME280;31738;50.188;8.524;2023-01-26T00:32:35;99473.59;;;1.75;92.15
46007;BME280;31738;50.188;8.524;2023-01-26T00:35:25;99464.66;;;1.76;92.11
46007;BME280;31738;50.188;8.524;2023-01-26T00:37:59;99463.84;;;1.75;92.08
46007;BME280;31738;50.188;8.524;2023-01-26T00:40:38;99467.50;;;1.74;91.95
46007;BME280;31738;50.188;8.524;2023-01-26T00:43:15;99474.41;;;1.75;92.15
46007;BME280;31738;50.188;8.524;2023-01-26T00:45:59;99476.44;;;1.73;91.80
46007;BME280;31738;50.188;8.524;2023-01-26T00:48:34;99476.03;;;1.76;91.98
46007;BME280;31738;50.188;8.524;2023-01-26T00:51:05;99469.75;;;1.77;92.08
46007;BME280;31738;50.188;8.524;2023-01-26T00:53:37;99468.72;;;1.78;91.80
46007;BME280;31738;50.188;8.524;2023-01-26T00:56:02;99466.72;;;1.81;91.75
46007;BME280;31738;50.188;8.524;2023-01-26T00:58:28;99474.84;;;1.79;91.58
46007;BME280;31738;50.188;8.524;2023-01-26T01:01:32;99473.59;;;1.75;91.71
46007;BME280;31738;50.188;8.524;2023-01-26T01:04:05;99471.56;;;1.70;91.73
46007;BME280;31738;50.188;8.524;2023-01-26T01:06:47;99471.94;;;1.67;91.95
46007;BME280;31738;50.188;8.524;2023-01-26T01:09:20;99467.47;;;1.68;91.91
46007;BME280;31738;50.188;8.524;2023-01-26T01:11:53;99473.19;;;1.71;91.97
46007;BME280;31738;50.188;8.524;2023-01-26T01:14:34;99472.81;;;1.74;91.49
46007;BME280;31738;50.188;8.524;2023-01-26T01:17:05;99474.81;;;1.72;91.51
46007;BME280;31738;50.188;8.524;2023-01-26T01:19:54;99461.38;;;1.67;91.70
46007;BME280;31738;50.188;8.524;2023-01-26T01:22:28;99466.25;;;1.70;91.91
46007;BME280;31738;50.188;8.524;2023-01-26T01:25:16;99470.75;;;1.70;92.10
46007;BME280;31738;50.188;8.524;2023-01-26T01:27:44;99468.09;;;1.70;91.70
46007;BME280;31738;50.188;8.524;2023-01-26T01:30:16;99472.78;;;1.68;91.30
46007;BME280;31738;50.188;8.524;2023-01-26T01:32:53;99466.25;;;1.64;91.41
46007;BME280;31738;50.188;8.524;2023-01-26T01:35:28;99462.16;;;1.61;91.55
46007;BME280;31738;50.188;8.524;2023-01-26T01:38:08;99468.69;;;1.59;91.31
46007;BME280;31738;50.188;8.524;2023-01-26T01:44:37;99465.38;;;1.50;91.95
46007;BME280;31738;50.188;8.524;2023-01-26T01:47:12;99453.22;;;1.56;91.49
46007;BME280;31738;50.188;8.524;2023-01-26T01:49:45;99462.75;;;1.57;91.38
46007;BME280;31738;50.188;8.524;2023-01-26T01:52:15;99467.84;;;1.58;91.34
46007;BME280;31738;50.188;8.524;2023-01-26T01:58:04;99450.38;;;1.57;91.34
46007;BME280;31738;50.188;8.524;2023-01-26T02:00:38;99448.91;;;1.55;90.92
46007;BME280;31738;50.188;8.524;2023-01-26T02:04:05;99461.50;;;1.46;91.03
46007;BME280;31738;50.188;8.524;2023-01-26T02:06:48;99453.97;;;1.43;91.28
46007;BME280;31738;50.188;8.524;2023-01-26T02:09:28;99453.97;;;1.43;91.26
46007;BME280;31738;50.188;8.524;2023-01-26T02:12:30;99455.19;;;1.47;91.45
46007;BME280;31738;50.188;8.524;2023-01-26T02:15:17;99458.47;;;1.49;90.96
46007;BME280;31738;50.188;8.524;2023-01-26T02:17:56;99447.69;;;1.51;90.87
46007;BME280;31738;50.188;8.524;2023-01-26T02:20:49;99451.97;;;1.52;90.61
46007;BME280;31738;50.188;8.524;2023-01-26T02:28:48;99440.78;;;1.56;90.59
46007;BME280;31738;50.188;8.524;2023-01-26T02:31:21;99441.97;;;1.47;90.71
46007;BME280;31738;50.188;8.524;2023-01-26T02:33:57;99436.09;;;1.45;90.74
46007;BME280;31738;50.188;8.524;2023-01-26T02:36:32;99441.78;;;1.42;90.38
46007;BME280;31738;50.188;8.524;2023-01-26T02:41:57;99439.31;;;1.34;90.46
46007;BME280;31738;50.188;8.524;2023-01-26T02:44:51;99437.66;;;1.33;90.39
46007;BME280;31738;50.188;8.524;2023-01-26T02:47:24;99432.00;;;1.36;90.53
46007;BME280;31738;50.188;8.524;2023-01-26T02:49:53;99424.66;;;1.38;90.53
46007;BME280;31738;50.188;8.524;2023-01-26T02:52:22;99420.63;;;1.42;90.54
46007;BME280;31738;50.188;8.524;2023-01-26T02:55:03;99418.19;;;1.41;90.50
46007;BME280;31738;50.188;8.524;2023-01-26T02:58:00;99420.81;;;1.34;90.35
46007;BME280;31738;50.188;8.524;2023-01-26T03:00:36;99417.38;;;1.40;90.37
46007;BME280;31738;50.188;8.524;2023-01-26T03:03:28;99417.75;;;1.37;90.01
46007;BME280;31738;50.188;8.524;2023-01-26T03:06:13;99407.19;;;1.37;90.45
46007;BME280;31738;50.188;8.524;2023-01-26T03:08:47;99408.81;;;1.38;90.55
46007;BME280;31738;50.188;8.524;2023-01-26T03:11:22;99401.50;;;1.40;90.34
46007;BME280;31738;50.188;8.524;2023-01-26T03:14:12;99409.22;;;1.35;90.12
46007;BME280;31738;50.188;8.524;2023-01-26T03:16:51;99401.91;;;1.37;90.24
46007;BME280;31738;50.188;8.524;2023-01-26T03:19:23;99405.78;;;1.41;90.22
46007;BME280;31738;50.188;8.524;2023-01-26T03:22:10;99397.84;;;1.41;90.29
46007;BME280;31738;50.188;8.524;2023-01-26T03:24:59;99397.84;;;1.41;90.28
46007;BME280;31738;50.188;8.524;2023-01-26T03:27:50;99401.72;;;1.39;90.11
46007;BME280;31738;50.188;8.524;2023-01-26T03:30:35;99399.09;;;1.45;90.39
46007;BME280;31738;50.188;8.524;2023-01-26T03:33:04;99398.28;;;1.45;90.67
46007;BME280;31738;50.188;8.524;2023-01-26T03:35:38;99395.44;;;1.46;90.71
46007;BME280;31738;50.188;8.524;2023-01-26T03:38:11;99395.84;;;1.50;90.10
46007;BME280;31738;50.188;8.524;2023-01-26T03:40:56;99392.38;;;1.49;90.02
46007;BME280;31738;50.188;8.524;2023-01-26T03:43:43;99381.19;;;1.47;90.12
46007;BME280;31738;50.188;8.524;2023-01-26T03:46:31;99386.47;;;1.47;90.24
46007;BME280;31738;50.188;8.524;2023-01-26T03:49:28;99388.72;;;1.44;89.97
46007;BME280;31738;50.188;8.524;2023-01-26T03:52:15;99383.44;;;1.44;90.23
46007;BME280;31738;50.188;8.524;2023-01-26T03:55:07;99391.97;;;1.39;90.00
46007;BME280;31738;50.188;8.524;2023-01-26T03:57:59;99380.56;;;1.39;90.12
46007;BME280;31738;50.188;8.524;2023-01-26T04:00:25;99378.34;;;1.42;90.55
46007;BME280;31738;50.188;8.524;2023-01-26T04:02:56;99373.25;;;1.47;90.23
46007;BME280;31738;50.188;8.524;2023-01-26T04:05:50;99372.28;;;1.48;90.44
46007;BME280;31738;50.188;8.524;2023-01-26T04:08:43;99370.63;;;1.47;89.96
46007;BME280;31738;50.188;8.524;2023-01-26T04:11:12;99367.00;;;1.48;90.25
46007;BME280;31738;50.188;8.524;2023-01-26T04:13:44;99361.69;;;1.48;90.08
46007;BME280;31738;50.188;8.524;2023-01-26T04:16:34;99359.06;;;1.48;90.14
46007;BME280;31738;50.188;8.524;2023-01-26T04:19:25;99358.44;;;1.46;90.17
46007;BME280;31738;50.188;8.524;2023-01-26T04:22:15;99355.16;;;1.44;90.26
46007;BME280;31738;50.188;8.524;2023-01-26T04:24:49;99360.88;;;1.48;90.13
46007;BME280;31738;50.188;8.524;2023-01-26T04:27:19;99358.47;;;1.53;89.82
46007;BME280;31738;50.188;8.524;2023-01-26T04:29:48;99360.28;;;1.52;90.10
46007;BME280;31738;50.188;8.524;2023-01-26T04:36:07;99350.72;;;1.45;90.15
46007;BME280;31738;50.188;8.524;2023-01-26T04:38:40;99356.81;;;1.45;90.10
46007;BME280;31738;50.188;8.524;2023-01-26T04:45:18;99355.38;;;1.36;89.91
46007;BME280;31738;50.188;8.524;2023-01-26T04:47:45;99356.78;;;1.39;89.70
46007;BME280;31738;50.188;8.524;2023-01-26T04:50:20;99362.91;;;1.39;89.65
46007;BME280;31738;50.188;8.524;2023-01-26T04:53:00;99364.91;;;1.37;89.74
46007;BME280;31738;50.188;8.524;2023-01-26T04:55:31;99361.66;;;1.35;89.45
46007;BME280;31738;50.188;8.524;2023-01-26T05:01:59;99358.78;;;1.30;89.93
46007;BME280;31738;50.188;8.524;2023-01-26T05:04:28;99352.72;;;1.36;89.79
46007;BME280;31738;50.188;8.524;2023-01-26T05:06:56;99354.34;;;1.37;89.43
46007;BME280;31738;50.188;8.524;2023-01-26T05:09:27;99355.97;;;1.38;89.28
46007;BME280;31738;50.188;8.524;2023-01-26T05:12:13;99359.84;;;1.36;89.04
46007;BME280;31738;50.188;8.524;2023-01-26T05:15:29;99362.44;;;1.29;89.19
46007;BME280;31738;50.188;8.524;2023-01-26T05:18:04;99358.19;;;1.28;89.32
46007;BME280;31738;50.188;8.524;2023-01-26T05:21:02;99351.84;;;1.23;88.93
46007;BME280;31738;50.188;8.524;2023-01-26T05:23:46;99350.84;;;1.24;89.47
46007;BME280;31738;50.188;8.524;2023-01-26T05:26:32;99349.63;;;1.26;89.15
46007;BME280;31738;50.188;8.524;2023-01-26T05:29:11;99347.00;;;1.26;89.25
46007;BME280;31738;50.188;8.524;2023-01-26T05:31:41;99349.88;;;1.31;89.01
46007;BME280;31738;50.188;8.524;2023-01-26T05:34:13;99351.06;;;1.29;89.14
46007;BME280;31738;50.188;8.524;2023-01-26T05:36:45;99354.28;;;1.24;88.54
46007;BME280;31738;50.188;8.524;2023-01-26T05:39:13;99366.91;;;1.22;88.43
46007;BME280;31738;50.188;8.524;2023-01-26T05:41:45;99364.06;;;1.24;88.59
46007;BME280;31738;50.188;8.524;2023-01-26T05:44:27;99364.03;;;1.17;88.39
46007;BME280;31738;50.188;8.524;2023-01-26T05:47:07;99367.69;;;1.16;88.51
46007;BME280;31738;50.188;8.524;2023-01-26T05:49:33;99376.22;;;1.18;88.52
46007;BME280;31738;50.188;8.524;2023-01-26T05:52:09;99374.16;;;1.14;88.35
46007;BME280;31738;50.188;8.524;2023-01-26T05:54:40;99386.34;;;1.08;88.40
46007;BME280;31738;50.188;8.524;2023-01-26T05:57:15;99377.41;;;1.09;88.58
46007;BME280;31738;50.188;8.524;2023-01-26T05:59:55;99370.50;;;1.08;87.85
46007;BME280;31738;50.188;8.524;2023-01-26T06:02:27;99382.69;;;1.09;88.03
46007;BME280;31738;50.188;8.524;2023-01-26T06:05:00;99380.44;;;1.06;88.10
46007;BME280;31738;50.188;8.524;2023-01-26T06:07:49;99383.91;;;1.07;87.89
46007;BME280;31738;50.188;8.524;2023-01-26T06:10:40;99386.13;;;1.03;87.38
46007;BME280;31738;50.188;8.524;2023-01-26T06:13:34;99383.88;;;1.00;88.12
46007;BME280;31738;50.188;8.524;2023-01-26T06:16:16;99387.94;;;1.03;87.89
46007;BME280;31738;50.188;8.524;2023-01-26T06:18:41;99385.91;;;1.05;87.61
46007;BME280;31738;50.188;8.524;2023-01-26T06:21:07;99398.09;;;1.06;87.67
46007;BME280;31738;50.188;8.524;2023-01-26T06:23:35;99397.31;;;1.05;87.62
46007;BME280;31738;50.188;8.524;2023-01-26T06:26:01;99397.31;;;1.05;87.26
46007;BME280;31738;50.188;8.524;2023-01-26T06:28:33;99405.84;;;1.07;87.26
46007;BME280;31738;50.188;8.524;2023-01-26T06:31:02;99391.63;;;1.08;87.35
46007;BME280;31738;50.188;8.524;2023-01-26T06:33:33;99411.13;;;1.07;87.13
46007;BME280;31738;50.188;8.524;2023-01-26T06:36:11;99406.22;;;1.04;86.95
46007;BME280;31738;50.188;8.524;2023-01-26T06:38:38;99412.13;;;1.06;87.30
46007;BME280;31738;50.188;8.524;2023-01-26T06:41:09;99413.16;;;1.05;87.34
46007;BME280;31738;50.188;8.524;2023-01-26T06:43:35;99412.13;;;1.06;87.09
46007;BME280;31738;50.188;8.524;2023-01-26T06:46:01;99411.94;;;1.08;87.12
46007;BME280;31738;50.188;8.524;2023-01-26T06:48:30;99411.94;;;1.08;86.67
46007;BME280;31738;50.188;8.524;2023-01-26T06:51:02;99416.22;;;1.09;86.60
46007;BME280;31738;50.188;8.524;2023-01-26T06:53:34;99420.88;;;1.07;86.83
46007;BME280;31738;50.188;8.524;2023-01-26T06:56:31;99428.75;;;1.00;86.87
46007;BME280;31738;50.188;8.524;2023-01-26T06:59:10;99420.22;;;0.98;86.50
46007;BME280;31738;50.188;8.524;2023-01-26T07:02:19;99432.72;;;0.83;86.68
46007;BME280;31738;50.188;8.524;2023-01-26T07:04:45;99438.44;;;0.87;86.90
46007;BME280;31738;50.188;8.524;2023-01-26T07:07:11;99439.88;;;0.89;86.57
46007;BME280;31738;50.188;8.524;2023-01-26T07:09:36;99439.25;;;0.87;86.97
46007;BME280;31738;50.188;8.524;2023-01-26T07:12:02;99453.25;;;0.88;86.53
46007;BME280;31738;50.188;8.524;2023-01-26T07:14:27;99440.25;;;0.86;86.49
46007;BME280;31738;50.188;8.524;2023-01-26T07:16:53;99449.59;;;0.82;86.35
46007;BME280;31738;50.188;8.524;2023-01-26T07:19:18;99460.91;;;0.76;86.54
46007;BME280;31738;50.188;8.524;2023-01-26T07:21:44;99453.78;;;0.77;86.26
46007;BME280;31738;50.188;8.524;2023-01-26T07:24:11;99463.56;;;0.76;86.58
46007;BME280;31738;50.188;8.524;2023-01-26T07:26:37;99471.28;;;0.78;86.67
46007;BME280;31738;50.188;8.524;2023-01-26T07:29:02;99468.66;;;0.78;86.55
46007;BME280;31738;50.188;8.524;2023-01-26T07:31:28;99463.38;;;0.78;86.13
46007;BME280;31738;50.188;8.524;2023-01-26T07:33:54;99466.59;;;0.80;86.45
46007;BME280;31738;50.188;8.524;2023-01-26T07:36:19;99467.44;;;0.80;86.18
46007;BME280;31738;50.188;8.524;2023-01-26T07:38:44;99467.81;;;0.77;86.06
46007;BME280;31738;50.188;8.524;2023-01-26T07:41:11;99464.53;;;0.75;85.99
46007;BME280;31738;50.188;8.524;2023-01-26T07:43:37;99469.22;;;0.73;86.03
46007;BME280;31738;50.188;8.524;2023-01-26T07:46:07;99473.47;;;0.74;86.14
46007;BME280;31738;50.188;8.524;2023-01-26T07:48:35;99466.19;;;0.76;85.73
46007;BME280;31738;50.188;8.524;2023-01-26T07:51:02;99477.56;;;0.77;85.92
46007;BME280;31738;50.188;8.524;2023-01-26T07:53:28;99476.69;;;0.70;85.36
46007;BME280;31738;50.188;8.524;2023-01-26T07:56:04;99483.56;;;0.64;85.71
46007;BME280;31738;50.188;8.524;2023-01-26T07:58:30;99491.72;;;0.69;85.52
46007;BME280;31738;50.188;8.524;2023-01-26T08:01:19;99484.19;;;0.66;85.57
46007;BME280;31738;50.188;8.524;2023-01-26T08:03:51;99493.38;;;0.70;85.34
46007;BME280;31738;50.188;8.524;2023-01-26T08:06:18;99492.72;;;0.68;85.03
46007;BME280;31738;50.188;8.524;2023-01-26T08:08:45;99494.72;;;0.66;85.50
46007;BME280;31738;50.188;8.524;2023-01-26T08:11:16;99494.72;;;0.66;85.57
46007;BME280;31738;50.188;8.524;2023-01-26T08:13:43;99494.50;;;0.61;85.01
46007;BME280;31738;50.188;8.524;2023-01-26T08:16:10;99494.13;;;0.64;85.50
46007;BME280;31738;50.188;8.524;2023-01-26T08:18:50;99503.66;;;0.65;85.10
46007;BME280;31738;50.188;8.524;2023-01-26T08:21:17;99501.66;;;0.67;85.15
46007;BME280;31738;50.188;8.524;2023-01-26T08:23:47;99505.94;;;0.68;84.86
46007;BME280;31738;50.188;8.524;2023-01-26T08:26:13;99503.03;;;0.63;84.76
46007;BME280;31738;50.188;8.524;2023-01-26T08:28:39;99501.41;;;0.62;84.96
46007;BME280;31738;50.188;8.524;2023-01-26T08:31:07;99504.50;;;0.66;85.15
46007;BME280;31738;50.188;8.524;2023-01-26T08:33:35;99507.31;;;0.64;84.70
46007;BME280;31738;50.188;8.524;2023-01-26T08:36:07;99503.88;;;0.64;84.85
46007;BME280;31738;50.188;8.524;2023-01-26T08:38:42;99501.03;;;0.65;85.04
46007;BME280;31738;50.188;8.524;2023-01-26T08:42:05;99498.91;;;0.54;84.90
46007;BME280;31738;50.188;8.524;2023-01-26T08:44:30;99505.44;;;0.58;84.96
46007;BME280;31738;50.188;8.524;2023-01-26T08:47:05;99514.34;;;0.57;84.14
46007;BME280;31738;50.188;8.524;2023-01-26T08:49:52;99519.75;;;0.49;84.85
46007;BME280;31738;50.188;8.524;2023-01-26T08:52:18;99518.78;;;0.50;84.29
46007;BME280;31738;50.188;8.524;2023-01-26T08:54:46;99518.22;;;0.55;84.59
46007;BME280;31738;50.188;8.524;2023-01-26T08:57:11;99519.38;;;0.52;84.27
46007;BME280;31738;50.188;8.524;2023-01-26T08:59:37;99518.41;;;0.53;84.63
46007;BME280;31738;50.188;8.524;2023-01-26T09:02:02;99519.03;;;0.55;84.25
46007;BME280;31738;50.188;8.524;2023-01-26T09:04:27;99511.53;;;0.59;84.31
46007;BME280;31738;50.188;8.524;2023-01-26T09:06:53;99519.69;;;0.64;84.36
46007;BME280;31738;50.188;8.524;2023-01-26T09:09:18;99520.53;;;0.64;84.17
46007;BME280;31738;50.188;8.524;2023-01-26T09:11:44;99528.44;;;0.64;84.03
46007;BME280;31738;50.188;8.524;2023-01-26T09:14:09;99531.28;;;0.63;83.46
46007;BME280;31738;50.188;8.524;2023-01-26T09:16:35;99533.09;;;0.62;83.63
46007;BME280;31738;50.188;8.524;2023-01-26T09:19:00;99534.72;;;0.63;83.44
46007;BME280;31738;50.188;8.524;2023-01-26T09:21:25;99539.56;;;0.60;83.63
46007;BME280;31738;50.188;8.524;2023-01-26T09:23:51;99537.16;;;0.65;84.15
46007;BME280;31738;50.188;8.524;2023-01-26T09:26:16;99540.25;;;0.68;83.87
46007;BME280;31738;50.188;8.524;2023-01-26T09:28:42;99545.25;;;0.63;83.84
46007;BME280;31738;50.188;8.524;2023-01-26T09:31:09;99539.56;;;0.60;83.53
46007;BME280;31738;50.188;8.524;2023-01-26T09:33:35;99542.22;;;0.60;83.85
46007;BME280;31738;50.188;8.524;2023-01-26T09:36:06;99536.56;;;0.63;83.72
46007;BME280;31738;50.188;8.524;2023-01-26T09:38:32;99535.53;;;0.64;83.80
46007;BME280;31738;50.188;8.524;2023-01-26T09:41:11;99534.31;;;0.66;83.73
46007;BME280;31738;50.188;8.524;2023-01-26T09:43:50;99531.94;;;0.71;83.64
46007;BME280;31738;50.188;8.524;2023-01-26T09:46:21;99527.03;;;0.68;83.76
46007;BME280;31738;50.188;8.524;2023-01-26T09:49:09;99538.63;;;0.67;83.41
46007;BME280;31738;50.188;8.524;2023-01-26T09:51:45;99535.72;;;0.62;83.81
46007;BME280;31738;50.188;8.524;2023-01-26T09:54:31;99537.59;;;0.68;83.98
46007;BME280;31738;50.188;8.524;2023-01-26T09:57:00;99537.22;;;0.71;83.59
46007;BME280;31738;50.188;8.524;2023-01-26T09:59:31;99536.00;;;0.74;83.96
46007;BME280;31738;50.188;8.524;2023-01-26T10:02:16;99524.41;;;0.68;83.53
46007;BME280;31738;50.188;8.524;2023-01-26T10:04:47;99533.94;;;0.69;83.56
46007;BME280;31738;50.188;8.524;2023-01-26T10:07:14;99531.09;;;0.64;83.35
46007;BME280;31738;50.188;8.524;2023-01-26T10:09:50;99532.31;;;0.68;83.64
46007;BME280;31738;50.188;8.524;2023-01-26T10:12:27;99533.34;;;0.67;83.24
46007;BME280;31738;50.188;8.524;2023-01-26T10:15:00;99529.94;;;0.73;82.93
46007;BME280;31738;50.188;8.524;2023-01-26T10:17:39;99523.88;;;0.79;83.14
46007;BME280;31738;50.188;8.524;2023-01-26T10:20:33;99526.78;;;0.84;83.39
46007;BME280;31738;50.188;8.524;2023-01-26T10:23:11;99520.28;;;0.87;82.63
46007;BME280;31738;50.188;8.524;2023-01-26T10:25:41;99517.47;;;0.88;82.43
46007;BME280;31738;50.188;8.524;2023-01-26T10:30:46;99521.88;;;0.81;82.21
46007;BME280;31738;50.188;8.524;2023-01-26T10:33:32;99512.69;;;0.77;82.19
46007;BME280;31738;50.188;8.524;2023-01-26T10:35:59;99517.59;;;0.80;82.85
46007;BME280;31738;50.188;8.524;2023-01-26T10:43:48;99523.19;;;0.98;82.64
46007;BME280;31738;50.188;8.524;2023-01-26T10:46:43;99516.75;;;1.01;82.59
46007;BME280;31738;50.188;8.524;2023-01-26T10:51:36;99506.59;;;1.04;82.52
46007;BME280;31738;50.188;8.524;2023-01-26T10:54:23;99505.19;;;1.08;81.79
46007;BME280;31738;50.188;8.524;2023-01-26T10:56:57;99500.97;;;1.14;81.41
46007;BME280;31738;50.188;8.524;2023-01-26T11:05:01;99502.25;;;1.24;81.95
46007;BME280;31738;50.188;8.524;2023-01-26T11:07:32;99504.34;;;1.35;81.23
46007;BME280;31738;50.188;8.524;2023-01-26T11:10:15;99508.88;;;1.48;80.90
46007;BME280;31738;50.188;8.524;2023-01-26T11:12:41;99501.78;;;1.48;80.30
46007;BME280;31738;50.188;8.524;2023-01-26T11:15:23;99498.66;;;1.38;80.06
46007;BME280;31738;50.188;8.524;2023-01-26T11:18:09;99506.13;;;1.28;80.15
46007;BME280;31738;50.188;8.524;2023-01-26T11:20:49;99492.94;;;1.28;80.79
46007;BME280;31738;50.188;8.524;2023-01-26T11:23:49;99486.00;;;1.27;80.67
46007;BME280;31738;50.188;8.524;2023-01-26T11:26:31;99481.94;;;1.25;81.02
46007;BME280;31738;50.188;8.524;2023-01-26T11:29:25;99492.00;;;1.08;78.43
46007;BME280;31738;50.188;8.524;2023-01-26T11:32:14;99478.00;;;1.14;81.20
46007;BME280;31738;50.188;8.524;2023-01-26T11:35:17;99480.03;;;1.12;81.35
46007;BME280;31738;50.188;8.524;2023-01-26T11:38:03;99485.94;;;1.14;81.74
46007;BME280;31738;50.188;8.524;2023-01-26T11:43:26;99477.78;;;1.09;81.54
46007;BME280;31738;50.188;8.524;2023-01-26T11:51:46;99450.09;;;0.99;82.61
46007;BME280;31738;50.188;8.524;2023-01-26T11:54:47;99436.25;;;0.90;82.19
46007;BME280;31738;50.188;8.524;2023-01-26T11:57:38;99446.94;;;0.82;82.37
46007;BME280;31738;50.188;8.524;2023-01-26T12:00:20;99438.25;;;0.88;83.37
46007;BME280;31738;50.188;8.524;2023-01-26T12:03:07;99430.19;;;0.96;82.99
46007;BME280;31738;50.188;8.524;2023-01-26T12:05:43;99423.47;;;1.00;82.97
46007;BME280;31738;50.188;8.524;2023-01-26T12:08:28;99418.44;;;1.05;82.84
46007;BME280;31738;50.188;8.524;2023-01-26T12:11:05;99415.22;;;1.10;82.68
46007;BME280;31738;50.188;8.524;2023-01-26T12:14:15;99413.53;;;1.02;83.11
46007;BME280;31738;50.188;8.524;2023-01-26T12:19:12;99391.69;;;1.21;83.23
46007;BME280;31738;50.188;8.524;2023-01-26T12:21:43;99394.53;;;1.26;83.45
46007;BME280;31738;50.188;8.524;2023-01-26T12:24:13;99386.25;;;1.36;83.12
46007;BME280;31738;50.188;8.524;2023-01-26T12:26:46;99390.94;;;1.40;83.63
46007;BME280;31738;50.188;8.524;2023-01-26T12:29:36;99379.56;;;1.46;83.35
46007;BME280;31738;50.188;8.524;2023-01-26T12:32:13;99375.94;;;1.54;83.24
46007;BME280;31738;50.188;8.524;2023-01-26T12:34:39;99368.44;;;1.57;83.33
46007;BME280;31738;50.188;8.524;2023-01-26T12:39:44;99379.81;;;1.64;82.96
46007;BME280;31738;50.188;8.524;2023-01-26T12:42:23;99370.28;;;1.63;82.96
46007;BME280;31738;50.188;8.524;2023-01-26T12:44:56;99366.81;;;1.69;82.67
46007;BME280;31738;50.188;8.524;2023-01-26T12:47:39;99365.00;;;1.76;82.67
46007;BME280;31738;50.188;8.524;2023-01-26T12:50:31;99365.00;;;1.76;82.80
46007;BME280;31738;50.188;8.524;2023-01-26T12:53:11;99360.94;;;1.81;83.22
46007;BME280;31738;50.188;8.524;2023-01-26T12:55:45;99361.94;;;1.79;82.83
46007;BME280;31738;50.188;8.524;2023-01-26T12:58:17;99368.47;;;1.77;82.98
46007;BME280;31738;50.188;8.524;2023-01-26T13:01:04;99369.47;;;1.83;82.85
46007;BME280;31738;50.188;8.524;2023-01-26T13:03:34;99361.13;;;1.86;83.33
46007;BME280;31738;50.188;8.524;2023-01-26T13:11:04;99355.25;;;1.90;83.41
46007;BME280;31738;50.188;8.524;2023-01-26T13:13:53;99353.63;;;1.96;83.34
46007;BME280;31738;50.188;8.524;2023-01-26T13:18:54;99346.91;;;2.00;83.52
46007;BME280;31738;50.188;8.524;2023-01-26T13:26:58;99351.78;;;1.83;83.80
46007;BME280;31738;50.188;8.524;2023-01-26T13:31:55;99341.44;;;1.95;84.18
46007;BME280;31738;50.188;8.524;2023-01-26T13:34:44;99335.72;;;1.98;84.23
46007;BME280;31738;50.188;8.524;2023-01-26T13:39:57;99337.34;;;1.99;84.23
46007;BME280;31738;50.188;8.524;2023-01-26T13:42:31;99337.75;;;1.96;84.11
46007;BME280;31738;50.188;8.524;2023-01-26T13:45:04;99341.03;;;1.98;84.22
46007;BME280;31738;50.188;8.524;2023-01-26T13:47:40;99327.81;;;1.98;84.46
46007;BME280;31738;50.188;8.524;2023-01-26T13:50:33;99339.78;;;1.94;84.32
46007;BME280;31738;50.188;8.524;2023-01-26T13:53:27;99342.22;;;1.89;84.63
46007;BME280;31738;50.188;8.524;2023-01-26T13:55:56;99329.19;;;1.94;84.51
46007;BME280;31738;50.188;8.524;2023-01-26T13:58:22;99334.09;;;1.97;84.71
46007;BME280;31738;50.188;8.524;2023-01-26T14:01:17;99330.84;;;1.95;84.91
46007;BME280;31738;50.188;8.524;2023-01-26T14:03:43;99337.75;;;1.96;84.49
46007;BME280;31738;50.188;8.524;2023-01-26T14:08:38;99345.47;;;1.91;85.15
46007;BME280;31738;50.188;8.524;2023-01-26T14:11:15;99340.19;;;1.91;84.95
46007;BME280;31738;50.188;8.524;2023-01-26T14:13:41;99340.19;;;1.91;85.05
46007;BME280;31738;50.188;8.524;2023-01-26T14:16:23;99343.03;;;1.83;85.29
46007;BME280;31738;50.188;8.524;2023-01-26T14:18:49;99347.31;;;1.84;85.58
46007;BME280;31738;50.188;8.524;2023-01-26T14:21:20;99347.91;;;1.86;85.62
46007;BME280;31738;50.188;8.524;2023-01-26T14:23:53;99351.16;;;1.81;85.91
46007;BME280;31738;50.188;8.524;2023-01-26T14:26:28;99349.53;;;1.73;86.65
46007;BME280;31738;50.188;8.524;2023-01-26T14:28:54;99349.13;;;1.76;86.36
46007;BME280;31738;50.188;8.524;2023-01-26T14:31:24;99351.78;;;1.83;86.63
46007;BME280;31738;50.188;8.524;2023-01-26T14:33:52;99353.19;;;1.86;86.52
46007;BME280;31738;50.188;8.524;2023-01-26T14:36:23;99352.19;;;1.87;86.06
46007;BME280;31738;50.188;8.524;2023-01-26T14:38:51;99352.41;;;1.92;86.35
46007;BME280;31738;50.188;8.524;2023-01-26T14:41:20;99361.97;;;1.93;86.36
46007;BME280;31738;50.188;8.524;2023-01-26T14:43:48;99358.50;;;1.92;86.17
46007;BME280;31738;50.188;8.524;2023-01-26T14:46:17;99360.94;;;1.94;86.06
46007;BME280;31738;50.188;8.524;2023-01-26T14:48:55;99348.53;;;1.94;86.47
46007;BME280;31738;50.188;8.524;2023-01-26T14:51:23;99355.03;;;1.98;86.45
46007;BME280;31738;50.188;8.524;2023-01-26T14:53:53;99354.63;;;2.01;86.61
46007;BME280;31738;50.188;8.524;2023-01-26T14:56:22;99349.13;;;2.03;86.21
46007;BME280;31738;50.188;8.524;2023-01-26T14:58:52;99347.53;;;2.02;86.66
46007;BME280;31738;50.188;8.524;2023-01-26T15:01:21;99342.22;;;2.02;86.63
46007;BME280;31738;50.188;8.524;2023-01-26T15:03:48;99341.81;;;2.05;86.35
46007;BME280;31738;50.188;8.524;2023-01-26T15:06:20;99348.72;;;2.06;86.42
46007;BME280;31738;50.188;8.524;2023-01-26T15:09:05;99349.97;;;2.03;86.60
46007;BME280;31738;50.188;8.524;2023-01-26T15:11:41;99347.53;;;2.02;86.53
46007;BME280;31738;50.188;8.524;2023-01-26T15:14:35;99352.41;;;1.98;86.59